Decoded Metar for UKDR (KRIVYY RIH in UKRAINE) (IATA:N/A) | Meteo·Mobile Aviation Weather
aviador You're here:

UKDR Decoded Metar

KRIVYY RIH in UKRAINE
Report Time2018-11-12 17:30:00
UTC Time2018-11-12 17:37:13
Flight Rules vfr VFR
Wind090° at 8 kt
W.Decomp.*RWY 36: 0.6 kt HW 8.0 kt RCW
W.Rank090° ranks 15
Current wind is above 090° avg. (7.8)
Visibility9999 m
Phenomena:N/A
Clouds:N/A
Expected CloudBase > 2,800 ft AGL from Temp-Dew spread
CeilingNone
Temp-1°C (ISA -15)
Dew Point-8°C (59% RH)
AAT-6.8°C
QNH1037 hPa
Density Alt-2,218 ft
Elevation407 ft
Report Wrong Elevation
Raw Report
UKDR 121730Z 09004MPS 060V150 CAVOK M01/M08 Q1037 R36/09//70
NOSIG=

Extra information for UKDR:More info

Metar Taf Metar & Taf Last 4 Metars F.Rules Stats Wind Profile Meteogram Temp Stats Airport Information Weather charts Add Link Nearby VenuesMetar ALERT Operation Metar Decoded Social comments